Time;durP1;ratioP1;P1;durP2;ratioP2;P2;SDS_P1;SDS_P2;PMS_P1;PMS_P2;Temp;Humidity;BMP_temperature;BMP_pressure;BME280_temperature;BME280_humidity;BME280_pressure;Samples;Min_cycle;Max_cycle;Signal;HPM_P1;HPM_P2
2022/12/23 00:05:12;;;;;;;3.80;1.10;;;;;;;7.34;100.00;97274.06;15294289;19;20003;-85
2022/12/23 00:10:36;;;;;;;2.45;1.10;;;;;;;7.38;100.00;97275.38;15302203;19;20085;-85
2022/12/23 00:16:05;;;;;;;2.50;1.00;;;;;;;7.42;100.00;97275.88;15334330;19;20006;-82
2022/12/23 00:21:34;;;;;;;3.40;1.20;;;;;;;7.43;100.00;97274.03;15318157;19;20035;-83
2022/12/23 00:27:00;;;;;;;3.05;1.10;;;;;;;7.42;100.00;97269.69;15301657;19;20015;-85
2022/12/23 00:32:25;;;;;;;2.88;1.08;;;;;;;7.51;100.00;97258.78;15304349;19;20026;-85
2022/12/23 00:37:59;;;;;;;4.60;1.10;;;;;;;7.49;100.00;97268.00;15312977;19;20015;-84
2022/12/23 00:43:24;;;;;;;3.63;1.30;;;;;;;7.45;100.00;97270.19;15298521;19;20016;-85
2022/12/23 00:54:28;;;;;;;3.60;1.02;;;;;;;7.47;100.00;97270.84;15296342;19;20021;-86
2022/12/23 00:59:53;;;;;;;5.32;1.45;;;;;;;7.51;100.00;97276.72;15296012;19;20017;-85
2022/12/23 12:42:25;;;;;;;0.40;0.40;;;;;;;9.61;100.00;97328.97;15279065;19;20018;-79
2022/12/23 12:47:58;;;;;;;1.15;0.70;;;;;;;9.56;100.00;97333.06;15295534;19;20043;-79
2022/12/23 12:53:38;;;;;;;0.73;0.60;;;;;;;9.54;100.00;97324.31;15301366;19;20361;-77
2022/12/23 12:59:06;;;;;;;1.88;0.90;;;;;;;9.47;100.00;97312.59;15295201;19;20023;-78
2022/12/23 13:04:54;;;;;;;1.13;0.80;;;;;;;9.44;100.00;97320.22;15298645;19;20035;-78
2022/12/23 13:10:33;;;;;;;0.82;0.65;;;;;;;9.43;100.00;97307.78;15297288;19;20027;-79
2022/12/23 13:16:07;;;;;;;1.08;0.65;;;;;;;9.44;100.00;97309.44;15294604;19;20018;-78
2022/12/23 13:21:39;;;;;;;0.60;0.60;;;;;;;9.41;100.00;97313.34;15296780;19;20022;-79
2022/12/23 13:27:13;;;;;;;0.80;0.80;;;;;;;9.40;100.00;97287.47;15285361;19;20022;-78
2022/12/23 13:32:58;;;;;;;1.10;0.80;;;;;;;9.35;100.00;97284.53;15290152;19;20011;-76
2022/12/23 13:38:42;;;;;;;0.60;0.60;;;;;;;9.29;100.00;97269.09;15332376;19;20015;-77
2022/12/23 13:44:17;;;;;;;0.80;0.60;;;;;;;9.25;100.00;97266.78;15301659;19;20018;-79
2022/12/23 13:49:58;;;;;;;0.80;0.60;;;;;;;9.19;100.00;97274.72;15203124;19;2004139;-79
2022/12/23 13:55:32;;;;;;;0.73;0.60;;;;;;;9.15;100.00;97282.31;15309580;19;20010;-78
2022/12/23 14:01:22;;;;;;;0.50;0.50;;;;;;;9.07;100.00;97252.84;15304153;19;20023;-77
2022/12/23 14:06:56;;;;;;;0.75;0.75;;;;;;;8.98;100.00;97259.28;15298823;19;20338;-77
2022/12/23 14:12:27;;;;;;;1.02;0.60;;;;;;;8.85;100.00;97259.88;15304238;19;20014;-78
2022/12/23 14:18:04;;;;;;;0.60;0.60;;;;;;;8.79;100.00;97246.16;15311805;19;20010;-77
2022/12/23 14:23:48;;;;;;;2.30;0.80;;;;;;;8.75;100.00;97231.41;15305943;19;20422;-78
2022/12/23 14:29:40;;;;;;;;;;;;;;;8.67;100.00;97217.22;15314395;19;20018;-78
2022/12/23 14:35:23;;;;;;;1.80;0.90;;;;;;;8.67;100.00;97217.22;15297581;19;19919;-78
2022/12/23 14:41:17;;;;;;;1.10;1.00;;;;;;;8.64;100.00;97224.59;15304080;19;20024;-79
2022/12/23 14:46:56;;;;;;;1.50;0.88;;;;;;;8.57;100.00;97230.88;15301374;19;20015;-78
2022/12/23 14:53:00;;;;;;;0.80;0.80;;;;;;;8.54;100.00;97215.94;15304221;19;20014;-79
2022/12/23 14:58:55;;;;;;;1.08;0.77;;;;;;;8.55;100.00;97200.69;15297825;19;20476;-78
2022/12/23 15:04:35;;;;;;;0.70;0.70;;;;;;;8.55;100.00;97206.06;15303125;19;20015;-78
2022/12/23 15:10:18;;;;;;;1.40;0.70;;;;;;;8.51;100.00;97197.53;15298861;19;20014;-77
2022/12/23 15:16:05;;;;;;;1.17;0.68;;;;;;;8.48;100.00;97179.91;15305672;19;20013;-78
2022/12/23 15:21:36;;;;;;;0.88;0.60;;;;;;;8.45;100.00;97180.28;15295268;19;20023;-79
2022/12/23 15:27:16;;;;;;;0.60;0.47;;;;;;;8.44;100.00;97186.66;15284524;19;20023;-79
2022/12/23 15:32:48;;;;;;;0.35;0.35;;;;;;;8.44;100.00;97208.13;15283812;19;20011;-76
2022/12/23 15:38:22;;;;;;;0.30;0.30;;;;;;;8.38;100.00;97197.25;15273976;19;20014;-77
2022/12/23 15:43:52;;;;;;;1.02;0.50;;;;;;;8.38;100.00;97214.19;15278727;19;20082;-79
2022/12/23 15:49:26;;;;;;;0.60;0.60;;;;;;;8.33;100.00;97219.25;15284703;19;20019;-79
2022/12/23 15:55:05;;;;;;;1.10;0.60;;;;;;;8.28;100.00;97227.84;15284699;19;20031;-77
2022/12/23 16:00:44;;;;;;;0.73;0.73;;;;;;;8.22;100.00;97246.50;15281503;19;20026;-77
2022/12/23 16:06:30;;;;;;;0.70;0.70;;;;;;;8.15;100.00;97238.31;15283474;19;20429;-77
2022/12/23 16:12:07;;;;;;;0.80;0.80;;;;;;;8.13;100.00;97219.69;15280629;19;20026;-78
2022/12/23 16:17:38;;;;;;;0.93;0.93;;;;;;;8.12;100.00;97222.56;15279678;19;20022;-77
2022/12/23 16:23:15;;;;;;;2.93;1.03;;;;;;;8.07;100.00;97212.34;15276464;19;20037;-78
2022/12/23 16:28:52;;;;;;;0.80;0.80;;;;;;;8.07;100.00;97198.09;15279808;19;20047;-77
2022/12/23 16:34:17;;;;;;;0.82;0.82;;;;;;;8.06;100.00;97196.41;15278349;19;20019;-77
2022/12/23 16:39:48;;;;;;;1.80;0.93;;;;;;;8.02;100.00;97175.34;15277508;19;20026;-78
2022/12/23 16:45:48;;;;;;;1.30;0.90;;;;;;;8.00;100.00;97174.66;15261963;19;20014;-78
2022/12/23 16:51:34;;;;;;;0.60;0.60;;;;;;;7.97;100.00;97164.28;15276769;19;20073;-77
2022/12/23 16:57:00;;;;;;;0.60;0.60;;;;;;;7.98;100.00;97181.22;15264530;19;20025;-77
2022/12/23 17:02:33;;;;;;;0.95;0.68;;;;;;;7.96;100.00;97186.75;15267286;19;20049;-77
2022/12/23 17:08:17;;;;;;;1.08;0.70;;;;;;;7.97;100.00;97187.59;15271278;19;20503;-75
2022/12/23 17:13:45;;;;;;;0.90;0.90;;;;;;;7.97;100.00;97203.69;15270111;19;20035;-75
2022/12/23 17:19:22;;;;;;;1.05;0.90;;;;;;;7.94;100.00;97188.75;15266440;19;20022;-75
2022/12/23 17:24:50;;;;;;;1.00;0.95;;;;;;;7.93;100.00;97167.50;15271921;19;20019;-75
2022/12/23 17:30:25;;;;;;;2.90;0.90;;;;;;;7.92;100.00;97169.34;15268980;19;20010;-75
2022/12/23 17:36:03;;;;;;;1.00;0.80;;;;;;;7.90;100.00;97166.00;15273733;19;20043;-77
2022/12/23 17:41:35;;;;;;;1.08;0.98;;;;;;;7.89;100.00;97156.28;15305797;19;20015;-77
2022/12/23 17:47:05;;;;;;;0.93;0.93;;;;;;;7.89;100.00;97148.25;15286424;19;20672;-76
2022/12/23 17:52:32;;;;;;;1.05;0.98;;;;;;;7.89;100.00;97153.59;15268996;19;20074;-76
2022/12/23 17:57:57;;;;;;;1.65;1.00;;;;;;;7.89;100.00;97155.44;15263638;19;20374;-76
2022/12/23 18:03:29;;;;;;;2.05;1.00;;;;;;;7.89;100.00;97142.88;15255303;19;20022;-76
2022/12/23 18:08:58;;;;;;;1.17;0.90;;;;;;;7.86;100.00;97127.13;15259044;19;20039;-75
2022/12/23 18:14:27;;;;;;;1.00;0.90;;;;;;;7.88;100.00;97114.41;15255828;19;20029;-76
2022/12/23 18:19:53;;;;;;;2.20;1.20;;;;;;;7.87;100.00;97093.94;15258286;19;20349;-76
2022/12/23 18:25:26;;;;;;;0.95;0.90;;;;;;;7.87;100.00;97080.53;15262754;19;20011;-77
2022/12/23 18:30:51;;;;;;;1.30;1.20;;;;;;;7.82;100.00;97075.72;15270036;19;20078;-76
2022/12/23 18:36:27;;;;;;;1.98;1.10;;;;;;;7.84;100.00;97068.34;15269180;19;20078;-77
2022/12/23 18:41:54;;;;;;;1.52;0.93;;;;;;;7.86;100.00;97070.81;15016600;19;5011599;-77
2022/12/23 18:47:21;;;;;;;1.10;1.00;;;;;;;7.87;100.00;97069.81;15268111;19;20013;-76
2022/12/23 18:52:46;;;;;;;1.25;0.80;;;;;;;7.88;100.00;97060.75;15268664;19;20018;-76
2022/12/23 18:58:14;;;;;;;0.88;0.82;;;;;;;7.87;100.00;97059.09;15279842;19;20040;-77
2022/12/23 19:03:39;;;;;;;0.90;0.90;;;;;;;7.87;100.00;97064.47;15283582;19;20066;-79
2022/12/23 19:09:03;;;;;;;1.27;0.80;;;;;;;7.86;100.00;97073.50;15286961;19;20018;-77
2022/12/23 19:14:30;;;;;;;1.98;1.20;;;;;;;7.89;100.00;97089.25;15295351;19;20031;-77
2022/12/23 19:19:55;;;;;;;2.13;1.65;;;;;;;7.92;100.00;97080.00;15299199;19;20014;-77
2022/12/23 19:25:21;;;;;;;3.13;2.50;;;;;;;7.96;100.00;97094.75;15291192;19;20031;-78
2022/12/23 19:30:49;;;;;;;2.22;1.55;;;;;;;7.95;100.00;97087.72;15298969;19;20011;-77
2022/12/23 19:36:16;;;;;;;1.60;1.50;;;;;;;7.93;100.00;97098.63;15294641;19;20019;-78
2022/12/23 19:41:40;;;;;;;1.83;1.40;;;;;;;7.92;100.00;97093.41;15289320;19;20021;-78
2022/12/23 19:47:08;;;;;;;2.50;1.33;;;;;;;7.89;100.00;97085.72;15293603;19;20011;-78
2022/12/23 19:52:32;;;;;;;3.08;1.58;;;;;;;7.88;100.00;97092.94;15297084;19;20031;-77
2022/12/23 19:57:57;;;;;;;2.15;1.40;;;;;;;7.87;100.00;97085.91;15290519;19;20054;-77
2022/12/23 20:03:24;;;;;;;1.58;1.48;;;;;;;7.88;100.00;97092.13;15294884;19;20411;-78
2022/12/23 20:08:49;;;;;;;1.33;1.23;;;;;;;7.87;100.00;97099.31;15292653;19;20017;-78
2022/12/23 20:14:20;;;;;;;2.90;1.30;;;;;;;7.84;100.00;97092.47;15290163;19;20078;-77
2022/12/23 20:19:54;;;;;;;1.55;1.20;;;;;;;7.84;100.00;97096.97;15292248;19;20025;-76
2022/12/23 20:25:18;;;;;;;1.35;1.20;;;;;;;7.88;100.00;97101.00;15286068;19;20106;-77
2022/12/23 20:30:43;;;;;;;1.20;1.10;;;;;;;7.91;100.00;97102.47;15287524;19;20047;-77
2022/12/23 20:36:10;;;;;;;1.50;1.10;;;;;;;7.91;100.00;97100.66;15267610;19;20025;-75
2022/12/23 20:41:35;;;;;;;1.02;1.00;;;;;;;8.00;100.00;97107.63;15292052;19;20496;-76
2022/12/23 20:46:59;;;;;;;1.05;0.88;;;;;;;8.06;100.00;97105.22;15289002;19;20056;-76
2022/12/23 20:52:27;;;;;;;0.80;0.80;;;;;;;8.13;100.00;97103.50;15290653;19;20021;-77
2022/12/23 20:57:53;;;;;;;0.77;0.70;;;;;;;8.21;100.00;97100.75;15283394;19;20018;-76
2022/12/23 21:03:18;;;;;;;0.63;0.63;;;;;;;8.22;100.00;97107.81;15281734;19;20025;-76
2022/12/23 21:08:46;;;;;;;0.60;0.60;;;;;;;8.21;100.00;97108.00;15288808;19;20018;-77
2022/12/23 21:14:11;;;;;;;1.17;0.70;;;;;;;8.24;100.00;97113.84;15284523;19;20039;-75
2022/12/23 21:19:36;;;;;;;0.90;0.70;;;;;;;8.29;100.00;97116.78;15285074;19;20074;-76
2022/12/23 21:25:04;;;;;;;0.60;0.60;;;;;;;8.32;100.00;97123.66;15283864;19;20033;-75
2022/12/23 21:30:29;;;;;;;1.80;0.75;;;;;;;8.32;100.00;97111.06;15285773;19;20035;-76
2022/12/23 21:35:55;;;;;;;0.85;0.70;;;;;;;8.39;100.00;97121.09;15278595;19;20723;-76
2022/12/23 21:41:23;;;;;;;1.17;0.82;;;;;;;8.38;100.00;97125.63;15289679;19;20387;-76
2022/12/23 21:46:50;;;;;;;1.67;0.65;;;;;;;8.46;100.00;97141.69;15280508;19;20015;-76
2022/12/23 21:52:14;;;;;;;0.95;0.65;;;;;;;8.50;100.00;97136.81;15286565;19;20070;-76
2022/12/23 21:57:42;;;;;;;1.10;0.68;;;;;;;8.57;100.00;97129.69;15281838;19;20022;-76
2022/12/23 22:03:06;;;;;;;1.25;0.60;;;;;;;8.76;100.00;97122.19;15284733;19;20018;-76
2022/12/23 22:08:31;;;;;;;1.85;0.70;;;;;;;8.93;100.00;97118.31;15296046;19;20473;-77
2022/12/23 22:13:59;;;;;;;2.60;0.80;;;;;;;9.07;100.00;97099.72;15300186;19;20027;-77
2022/12/23 22:19:24;;;;;;;1.08;0.50;;;;;;;9.07;100.00;97115.81;15291456;19;20020;-76
2022/12/23 22:24:48;;;;;;;1.70;0.65;;;;;;;9.09;100.00;97106.56;15299723;19;20026;-77
2022/12/23 22:30:16;;;;;;;1.65;0.60;;;;;;;9.10;100.00;97118.16;15302506;19;20018;-77
2022/12/23 22:35:40;;;;;;;1.73;0.70;;;;;;;9.07;100.00;97131.94;15300086;19;20093;-77
2022/12/23 22:41:05;;;;;;;2.22;0.80;;;;;;;9.02;100.00;97118.22;15305923;19;20015;-77
2022/12/23 22:46:39;;;;;;;1.83;0.70;;;;;;;9.06;100.00;97116.84;15309340;19;20017;-77
2022/12/23 22:52:04;;;;;;;3.70;0.85;;;;;;;9.13;100.00;97127.69;15305161;19;20022;-77
2022/12/23 22:57:28;;;;;;;4.18;1.20;;;;;;;9.08;100.00;97121.00;15301171;19;20031;-76
2022/12/23 23:02:56;;;;;;;4.47;1.00;;;;;;;9.30;100.00;97120.28;15298103;19;20060;-76
2022/12/23 23:08:20;;;;;;;5.75;1.50;;;;;;;9.45;100.00;97131.03;15298125;19;20373;-76
2022/12/23 23:13:45;;;;;;;4.35;0.95;;;;;;;9.37;100.00;97115.81;15291440;19;20078;-77
2022/12/23 23:19:13;;;;;;;5.75;1.40;;;;;;;9.35;100.00;97134.00;15295906;19;20043;-76
2022/12/23 23:24:39;;;;;;;5.82;1.30;;;;;;;9.48;100.00;97139.53;15287413;19;20043;-77
2022/12/23 23:30:03;;;;;;;3.78;1.10;;;;;;;9.59;100.00;97148.16;15297586;19;20533;-77
2022/12/23 23:35:31;;;;;;;5.47;1.42;;;;;;;9.67;100.00;97156.16;15292863;19;20014;-77
2022/12/23 23:40:55;;;;;;;5.30;1.40;;;;;;;9.69;100.00;97152.25;15293743;19;20848;-77
2022/12/23 23:46:26;;;;;;;5.68;1.20;;;;;;;9.73;100.00;97166.13;15287717;19;20022;-77
2022/12/23 23:51:54;;;;;;;3.87;1.20;;;;;;;9.73;100.00;97171.53;15295120;19;20086;-77
2022/12/23 23:57:18;;;;;;;5.55;1.40;;;;;;;9.77;100.00;97174.66;15285810;19;20019;-77
